Aérodrome :
LOGIN :

S'inscrire | Disclaimer

   EN    FR    IT 

 










Légende :    VFR   VFR Marginal   IFR   IFR Intensif   IFR Très Intensif
Visi : 
Plafond : 
>= 8 km
>= 3000ft
5 à 8 km
1000 à 3000 ft
1500m à 5 km
500 à 1000 ft
800 à 1500m
200 à 500 ft
< 800m
< 200 ft
Symboles :   Orages  Brouillard  Fortes neiges  Fortes précipitations  Vent > 20 kt
SIGMETs :   Divers  Orages  Givrage  Turbulence  Onde Orograph.  Cendres Volcan.







- Altitude de l'aérodrome : 287 ft
- Voir les cartes d'approche


LFRL - Lanveoc Poulmic

DERNIER METAR :
  • 230800Z AUTO 24004KT 180V290 9999 OVC037 17/12 Q1022 NOSIG

METARs EXPIRÉS :
  • 230730Z AUTO 27003KT 9999 OVC032 16/12 Q1022 NOSIG
  • 230700Z AUTO 30006KT 270V330 9999 FEW017 OVC027 16/12 Q1022 NOSIG
  • 230630Z AUTO 28005KT 240V310 9999 SCT019 OVC027 16/11 Q1021 NOSIG
  • 230600Z AUTO 29003KT 9999 FEW022 OVC028 16/11 Q1021 NOSIG
  • 230530Z AUTO 27003KT 240V300 9999 OVC023 16/11 Q1021 NOSIG

TAF TAF LFRL
Valide du 23 à 06h jusqu'au 23 à 15h UTC


230500Z 2306/2315 27010KT 9999 BKN025
TEMPO 2306/2311 BKN015
TEMPO 2312/2315 25010G22KT SCT025
Pas de NOTAMs connus pour ce terrain.



MET'MAP, la Météo Aéronautique d'un coup d'oeil ! - Copyright ORBIFLY Décembre 2007 - Disclaimer

ORBIFLY MET'MAP TEAM :

Programmation & Développement : Alexandra Zaïnal
Conception & Développement : Baudouin d'Aumeries
Co-Programmation & Développement : Marc-Olivier Méhu
Soutien technique & logistique : Manuel Goepfert

Contact : metmap@orbifly.com




SOURCES & CREDITS :

   NOAA